Time,TemperatureF,DewpointF,PressureIn,WindDirection,WindDirectionDegrees,WindSpeedMPH,WindSpeedGustMPH,Humidity,HourlyPrecipIn,Conditions,Clouds,dailyrainin,SoftwareType,DateUTC
2013-04-25 00:00:00,49.0,49.0,29.96,SSW,200,18.0,21.0,100,-99.99,,,-99.99,,2013-04-25 04:00:00,
2013-04-25 00:22:00,49.0,49.0,29.96,SSW,200,18.0,21.0,100,-99.99,,,-99.99,,2013-04-25 04:22:00,
2013-04-25 00:32:00,49.0,49.0,29.96,SSW,200,18.0,21.0,100,-99.99,,,-99.99,,2013-04-25 04:32:00,
2013-04-25 00:42:00,49.0,49.0,29.96,SSW,200,18.0,21.0,100,-99.99,,,-99.99,,2013-04-25 04:42:00,
2013-04-25 00:52:00,49.0,49.0,29.96,SSW,200,18.0,21.0,100,-99.99,,,-99.99,,2013-04-25 04:52:00,
2013-04-25 01:00:00,49.0,49.0,29.94,South,190,17.0,20.0,100,-99.99,,,-99.99,,2013-04-25 05:00:00,
2013-04-25 01:21:00,49.0,49.0,29.94,South,190,17.0,20.0,100,-99.99,,,-99.99,,2013-04-25 05:21:00,
2013-04-25 01:31:00,49.0,49.0,29.94,South,190,17.0,20.0,100,-99.99,,,-99.99,,2013-04-25 05:31:00,
2013-04-25 01:42:00,49.0,49.0,29.94,South,190,17.0,20.0,100,-99.99,,,-99.99,,2013-04-25 05:42:00,
2013-04-25 01:51:00,49.0,49.0,29.94,South,190,17.0,20.0,100,-99.99,,,-99.99,,2013-04-25 05:51:00,
2013-04-25 02:00:00,50.0,50.0,29.93,SSW,210,15.0,16.0,100,-99.99,,,-99.99,,2013-04-25 06:00:00,
2013-04-25 02:22:00,50.0,50.0,29.93,SSW,210,15.0,16.0,100,-99.99,,,-99.99,,2013-04-25 06:22:00,
2013-04-25 02:31:00,50.0,50.0,29.93,SSW,210,15.0,16.0,100,-99.99,,,-99.99,,2013-04-25 06:31:00,
2013-04-25 02:41:00,50.0,50.0,29.93,SSW,210,15.0,16.0,100,-99.99,,,-99.99,,2013-04-25 06:41:00,
2013-04-25 02:52:00,50.0,50.0,29.93,SSW,210,15.0,16.0,100,-99.99,,,-99.99,,2013-04-25 06:52:00,
2013-04-25 03:00:00,50.0,50.0,29.92,SSW,200,17.0,20.0,100,-99.99,,,-99.99,,2013-04-25 07:00:00,
2013-04-25 03:21:00,50.0,50.0,29.92,SSW,200,17.0,20.0,100,-99.99,,,-99.99,,2013-04-25 07:21:00,
2013-04-25 03:31:00,50.0,50.0,29.92,SSW,200,17.0,20.0,100,-99.99,,,-99.99,,2013-04-25 07:31:00,
2013-04-25 03:41:00,50.0,50.0,29.92,SSW,200,17.0,20.0,100,-99.99,,,-99.99,,2013-04-25 07:41:00,
2013-04-25 03:52:00,50.0,50.0,29.92,SSW,200,17.0,20.0,100,-99.99,,,-99.99,,2013-04-25 07:52:00,
2013-04-25 04:00:00,51.0,51.0,29.92,SW,220,23.0,24.0,99,-99.99,,,-99.99,,2013-04-25 08:00:00,
2013-04-25 04:21:00,51.0,51.0,29.92,SW,220,23.0,24.0,99,-99.99,,,-99.99,,2013-04-25 08:21:00,
2013-04-25 04:31:00,51.0,51.0,29.92,SW,220,23.0,24.0,99,-99.99,,,-99.99,,2013-04-25 08:31:00,
2013-04-25 04:41:00,51.0,51.0,29.92,SW,220,23.0,24.0,99,-99.99,,,-99.99,,2013-04-25 08:41:00,
2013-04-25 04:51:00,51.0,51.0,29.92,SW,220,23.0,24.0,99,-99.99,,,-99.99,,2013-04-25 08:51:00,
2013-04-25 05:00:00,49.0,49.0,29.93,SSW,210,22.0,23.0,100,-99.99,,,-99.99,,2013-04-25 09:00:00,
2013-04-25 05:21:00,49.0,49.0,29.93,SSW,210,22.0,23.0,100,-99.99,,,-99.99,,2013-04-25 09:21:00,
2013-04-25 05:32:00,49.0,49.0,29.93,SSW,210,22.0,23.0,100,-99.99,,,-99.99,,2013-04-25 09:32:00,
2013-04-25 05:42:00,49.0,49.0,29.93,SSW,210,22.0,23.0,100,-99.99,,,-99.99,,2013-04-25 09:42:00,
2013-04-25 05:52:00,49.0,49.0,29.93,SSW,210,22.0,23.0,100,-99.99,,,-99.99,,2013-04-25 09:52:00,
2013-04-25 06:00:00,48.0,48.0,29.96,SW,230,21.0,23.0,100,-99.99,,,-99.99,,2013-04-25 10:00:00,
2013-04-25 06:22:00,48.0,48.0,29.96,SW,230,21.0,23.0,100,-99.99,,,-99.99,,2013-04-25 10:22:00,
2013-04-25 06:32:00,48.0,48.0,29.96,SW,230,21.0,23.0,100,-99.99,,,-99.99,,2013-04-25 10:32:00,
2013-04-25 06:41:00,48.0,48.0,29.96,SW,230,21.0,23.0,100,-99.99,,,-99.99,,2013-04-25 10:41:00,
2013-04-25 06:52:00,48.0,48.0,29.96,SW,230,21.0,23.0,100,-99.99,,,-99.99,,2013-04-25 10:52:00,
2013-04-25 07:00:00,48.0,48.0,30.00,WSW,240,17.0,18.0,100,-99.99,,,-99.99,,2013-04-25 11:00:00,
2013-04-25 07:21:00,48.0,48.0,30.00,WSW,240,17.0,18.0,100,-99.99,,,-99.99,,2013-04-25 11:21:00,
2013-04-25 07:32:00,48.0,48.0,30.00,WSW,240,17.0,18.0,100,-99.99,,,-99.99,,2013-04-25 11:32:00,
2013-04-25 07:42:00,48.0,48.0,30.00,WSW,240,17.0,18.0,100,-99.99,,,-99.99,,2013-04-25 11:42:00,
2013-04-25 07:51:00,48.0,48.0,30.00,WSW,240,17.0,18.0,100,-99.99,,,-99.99,,2013-04-25 11:51:00,
2013-04-25 08:00:00,51.0,45.0,30.04,NW,320,21.0,24.0,79,-99.99,,,-99.99,,2013-04-25 12:00:00,
2013-04-25 08:21:00,51.0,45.0,30.04,NW,320,21.0,24.0,79,-99.99,,,-99.99,,2013-04-25 12:21:00,
2013-04-25 08:31:00,51.0,45.0,30.04,NW,320,21.0,24.0,79,-99.99,,,-99.99,,2013-04-25 12:31:00,
2013-04-25 08:41:00,51.0,45.0,30.04,NW,320,21.0,24.0,79,-99.99,,,-99.99,,2013-04-25 12:41:00,
2013-04-25 08:51:00,51.0,45.0,30.04,NW,320,21.0,24.0,79,-99.99,,,-99.99,,2013-04-25 12:51:00,
2013-04-25 09:00:00,50.0,42.0,30.08,NW,310,15.0,18.0,74,-99.99,,,-99.99,,2013-04-25 13:00:00,
2013-04-25 09:21:00,50.0,42.0,30.08,NW,310,15.0,18.0,74,-99.99,,,-99.99,,2013-04-25 13:21:00,
2013-04-25 09:31:00,50.0,42.0,30.08,NW,310,15.0,18.0,74,-99.99,,,-99.99,,2013-04-25 13:31:00,
2013-04-25 09:42:00,50.0,42.0,30.08,NW,310,15.0,18.0,74,-99.99,,,-99.99,,2013-04-25 13:42:00,
2013-04-25 09:52:00,50.0,42.0,30.08,NW,310,15.0,18.0,74,-99.99,,,-99.99,,2013-04-25 13:52:00,
2013-04-25 10:00:00,48.0,41.0,30.10,NW,320,14.0,14.0,76,-99.99,,,-99.99,,2013-04-25 14:00:00,
2013-04-25 10:21:00,48.0,41.0,30.10,NW,320,14.0,14.0,76,-99.99,,,-99.99,,2013-04-25 14:21:00,
2013-04-25 10:32:00,48.0,41.0,30.10,NW,320,14.0,14.0,76,-99.99,,,-99.99,,2013-04-25 14:32:00,
2013-04-25 10:41:00,48.0,41.0,30.10,NW,320,14.0,14.0,76,-99.99,,,-99.99,,2013-04-25 14:41:00,
2013-04-25 10:51:00,48.0,41.0,30.10,NW,320,14.0,14.0,76,-99.99,,,-99.99,,2013-04-25 14:51:00,
2013-04-25 11:00:00,48.0,39.0,30.13,WNW,300,9.0,10.0,70,-99.99,,,-99.99,,2013-04-25 15:00:00,
2013-04-25 11:21:00,48.0,39.0,30.13,WNW,300,9.0,10.0,70,-99.99,,,-99.99,,2013-04-25 15:21:00,
2013-04-25 11:32:00,48.0,39.0,30.13,WNW,300,9.0,10.0,70,-99.99,,,-99.99,,2013-04-25 15:32:00,
2013-04-25 11:42:00,48.0,39.0,30.13,WNW,300,9.0,10.0,70,-99.99,,,-99.99,,2013-04-25 15:42:00,
2013-04-25 11:52:00,48.0,39.0,30.13,WNW,300,9.0,10.0,70,-99.99,,,-99.99,,2013-04-25 15:52:00,
2013-04-25 12:00:00,50.0,37.0,30.14,WSW,250,2.0,2.0,61,-99.99,,,-99.99,,2013-04-25 16:00:00,
2013-04-25 12:24:00,50.0,37.0,30.14,WSW,250,2.0,2.0,61,-99.99,,,-99.99,,2013-04-25 16:24:00,
2013-04-25 12:32:00,50.0,37.0,30.14,WSW,250,2.0,2.0,61,-99.99,,,-99.99,,2013-04-25 16:32:00,
2013-04-25 12:42:00,50.0,37.0,30.14,WSW,250,2.0,2.0,61,-99.99,,,-99.99,,2013-04-25 16:42:00,
2013-04-25 12:52:00,50.0,37.0,30.14,WSW,250,2.0,2.0,61,-99.99,,,-99.99,,2013-04-25 16:52:00,
2013-04-25 13:00:00,51.0,35.0,30.14,SW,230,9.0,10.0,54,-99.99,,,-99.99,,2013-04-25 17:00:00,
2013-04-25 13:22:00,51.0,35.0,30.14,SW,230,9.0,10.0,54,-99.99,,,-99.99,,2013-04-25 17:22:00,
2013-04-25 13:31:00,51.0,35.0,30.14,SW,230,9.0,10.0,54,-99.99,,,-99.99,,2013-04-25 17:31:00,
2013-04-25 13:41:00,51.0,35.0,30.14,SW,230,9.0,10.0,54,-99.99,,,-99.99,,2013-04-25 17:41:00,
2013-04-25 13:53:00,51.0,35.0,30.14,SW,230,9.0,10.0,54,-99.99,,,-99.99,,2013-04-25 17:53:00,
2013-04-25 14:00:00,48.0,40.0,30.14,SW,220,15.0,16.0,73,-99.99,,,-99.99,,2013-04-25 18:00:00,
2013-04-25 14:21:00,48.0,40.0,30.14,SW,220,15.0,16.0,73,-99.99,,,-99.99,,2013-04-25 18:21:00,
2013-04-25 14:31:00,48.0,40.0,30.14,SW,220,15.0,16.0,73,-99.99,,,-99.99,,2013-04-25 18:31:00,
2013-04-25 14:42:00,48.0,40.0,30.14,SW,220,15.0,16.0,73,-99.99,,,-99.99,,2013-04-25 18:42:00,
2013-04-25 14:52:00,48.0,40.0,30.14,SW,220,15.0,16.0,73,-99.99,,,-99.99,,2013-04-25 18:52:00,
2013-04-25 15:00:00,49.0,39.0,30.13,SSW,210,17.0,17.0,69,-99.99,,,-99.99,,2013-04-25 19:00:00,
2013-04-25 15:21:00,49.0,39.0,30.13,SSW,210,17.0,17.0,69,-99.99,,,-99.99,,2013-04-25 19:21:00,
2013-04-25 15:31:00,49.0,39.0,30.13,SSW,210,17.0,17.0,69,-99.99,,,-99.99,,2013-04-25 19:31:00,
2013-04-25 15:41:00,49.0,39.0,30.13,SSW,210,17.0,17.0,69,-99.99,,,-99.99,,2013-04-25 19:41:00,
2013-04-25 15:52:00,49.0,39.0,30.13,SSW,210,17.0,17.0,69,-99.99,,,-99.99,,2013-04-25 19:52:00,
2013-04-25 16:00:00,49.0,41.0,30.13,SSW,210,20.0,21.0,72,-99.99,,,-99.99,,2013-04-25 20:00:00,
2013-04-25 16:21:00,49.0,41.0,30.13,SSW,210,20.0,21.0,72,-99.99,,,-99.99,,2013-04-25 20:21:00,
2013-04-25 16:31:00,49.0,41.0,30.13,SSW,210,20.0,21.0,72,-99.99,,,-99.99,,2013-04-25 20:31:00,
2013-04-25 16:42:00,49.0,41.0,30.13,SSW,210,20.0,21.0,72,-99.99,,,-99.99,,2013-04-25 20:42:00,
2013-04-25 16:51:00,49.0,41.0,30.13,SSW,210,20.0,21.0,72,-99.99,,,-99.99,,2013-04-25 20:51:00,
2013-04-25 17:00:00,50.0,40.0,30.14,SW,220,18.0,20.0,67,-99.99,,,-99.99,,2013-04-25 21:00:00,
2013-04-25 17:21:00,50.0,40.0,30.14,SW,220,18.0,20.0,67,-99.99,,,-99.99,,2013-04-25 21:21:00,
2013-04-25 17:32:00,50.0,40.0,30.14,SW,220,18.0,20.0,67,-99.99,,,-99.99,,2013-04-25 21:32:00,
2013-04-25 17:42:00,50.0,40.0,30.14,SW,220,18.0,20.0,67,-99.99,,,-99.99,,2013-04-25 21:42:00,
2013-04-25 17:52:00,50.0,40.0,30.14,SW,220,18.0,20.0,67,-99.99,,,-99.99,,2013-04-25 21:52:00,
2013-04-25 18:00:00,49.0,41.0,30.15,SSW,210,17.0,17.0,71,-99.99,,,-99.99,,2013-04-25 22:00:00,
2013-04-25 18:22:00,49.0,41.0,30.15,SSW,210,17.0,17.0,71,-99.99,,,-99.99,,2013-04-25 22:22:00,
2013-04-25 18:32:00,49.0,41.0,30.15,SSW,210,17.0,17.0,71,-99.99,,,-99.99,,2013-04-25 22:32:00,
2013-04-25 18:42:00,49.0,41.0,30.15,SSW,210,17.0,17.0,71,-99.99,,,-99.99,,2013-04-25 22:42:00,
2013-04-25 18:52:00,49.0,41.0,30.15,SSW,210,17.0,17.0,71,-99.99,,,-99.99,,2013-04-25 22:52:00,
2013-04-25 19:00:00,49.0,42.0,30.17,SSW,210,16.0,17.0,76,-99.99,,,-99.99,,2013-04-25 23:00:00,
2013-04-25 19:21:00,49.0,42.0,30.17,SSW,210,16.0,17.0,76,-99.99,,,-99.99,,2013-04-25 23:21:00,
2013-04-25 19:32:00,49.0,42.0,30.17,SSW,210,16.0,17.0,76,-99.99,,,-99.99,,2013-04-25 23:32:00,
2013-04-25 19:41:00,49.0,42.0,30.17,SSW,210,16.0,17.0,76,-99.99,,,-99.99,,2013-04-25 23:41:00,
2013-04-25 19:52:00,49.0,42.0,30.17,SSW,210,16.0,17.0,76,-99.99,,,-99.99,,2013-04-25 23:52:00,
2013-04-25 20:00:00,50.0,40.0,30.18,SW,220,21.0,22.0,68,-99.99,,,-99.99,,2013-04-26 00:00:00,
2013-04-25 20:21:00,50.0,40.0,30.18,SW,220,21.0,22.0,68,-99.99,,,-99.99,,2013-04-26 00:21:00,
2013-04-25 20:31:00,50.0,40.0,30.18,SW,220,21.0,22.0,68,-99.99,,,-99.99,,2013-04-26 00:31:00,
2013-04-25 20:41:00,50.0,40.0,30.18,SW,220,21.0,22.0,68,-99.99,,,-99.99,,2013-04-26 00:41:00,
2013-04-25 20:51:00,50.0,40.0,30.18,SW,220,21.0,22.0,68,-99.99,,,-99.99,,2013-04-26 00:51:00,
2013-04-25 21:00:00,49.0,41.0,30.21,SW,220,17.0,17.0,74,-99.99,,,-99.99,,2013-04-26 01:00:00,
2013-04-25 21:21:00,49.0,41.0,30.21,SW,220,17.0,17.0,74,-99.99,,,-99.99,,2013-04-26 01:21:00,
2013-04-25 21:31:00,49.0,41.0,30.21,SW,220,17.0,17.0,74,-99.99,,,-99.99,,2013-04-26 01:31:00,
2013-04-25 21:41:00,49.0,41.0,30.21,SW,220,17.0,17.0,74,-99.99,,,-99.99,,2013-04-26 01:41:00,
2013-04-25 21:52:00,49.0,41.0,30.21,SW,220,17.0,17.0,74,-99.99,,,-99.99,,2013-04-26 01:52:00,
2013-04-25 22:00:00,49.0,41.0,30.24,WSW,240,14.0,15.0,74,-99.99,,,-99.99,,2013-04-26 02:00:00,
2013-04-25 22:21:00,49.0,41.0,30.24,WSW,240,14.0,15.0,74,-99.99,,,-99.99,,2013-04-26 02:21:00,
2013-04-25 22:31:00,49.0,41.0,30.24,WSW,240,14.0,15.0,74,-99.99,,,-99.99,,2013-04-26 02:31:00,
2013-04-25 22:41:00,49.0,41.0,30.24,WSW,240,14.0,15.0,74,-99.99,,,-99.99,,2013-04-26 02:41:00,
2013-04-25 22:51:00,49.0,41.0,30.24,WSW,240,14.0,15.0,74,-99.99,,,-99.99,,2013-04-26 02:51:00,
2013-04-25 23:00:00,49.0,40.0,30.25,NW,320,7.0,8.0,70,-99.99,,,-99.99,,2013-04-26 03:00:00,
2013-04-25 23:21:00,49.0,40.0,30.25,NW,320,7.0,8.0,70,-99.99,,,-99.99,,2013-04-26 03:21:00,
2013-04-25 23:32:00,49.0,40.0,30.25,NW,320,7.0,8.0,70,-99.99,,,-99.99,,2013-04-26 03:32:00,
2013-04-25 23:43:00,49.0,40.0,30.25,NW,320,7.0,8.0,70,-99.99,,,-99.99,,2013-04-26 03:43:00,
2013-04-25 23:52:00,49.0,40.0,30.25,NW,320,7.0,8.0,70,-99.99,,,-99.99,,2013-04-26 03:52:00,